Date,TemperatureHighF,TemperatureAvgF,TemperatureLowF,DewpointHighF,DewpointAvgF,DewpointLowF,HumidityHigh,HumidityAvg,HumidityLow,PressureMaxIn,PressureMinIn,WindSpeedMaxMPH,WindSpeedAvgMPH,GustSpeedMaxMPH,PrecipitationSumIn
2013-9-1,140.0,74.5,62.1,69.3,63.6,56.8,97,72,39,29.77,29.50,15,5,25,0.37
2013-9-2,84.6,66.4,53.2,61.3,56.4,49.8,99,75,34,29.87,29.76,8,2,12,0.00
2013-9-3,91.2,66.2,46.8,65.6,55.2,46.5,99,74,31,29.92,29.81,6,1,9,0.00
2013-9-4,97.5,73.5,56.1,67.9,60.8,55.7,99,71,32,29.95,29.84,9,2,12,0.04
2013-9-5,95.4,77.0,63.7,69.4,66.0,62.8,98,73,40,29.99,29.90,5,1,8,0.00
2013-9-6,96.8,78.0,63.3,66.9,63.3,58.4,99,66,33,29.92,29.73,11,3,15,0.00
2013-9-7,100.4,81.4,70.7,73.2,67.7,61.3,94,65,39,29.75,29.65,10,3,14,0.00
2013-9-8,96.6,79.4,66.0,75.1,71.0,65.8,99,78,51,29.73,29.61,7,2,11,0.00
2013-9-9,101.7,83.6,66.7,71.9,65.8,61.8,99,61,30,29.67,29.59,17,5,23,0.00
2013-9-10,99.9,83.8,72.5,68.6,64.5,60.8,81,54,34,29.80,29.66,15,6,21,0.00
2013-9-11,92.1,77.2,69.3,72.7,68.1,63.9,98,75,47,29.89,29.78,7,2,12,0.02
2013-9-12,84.2,69.4,51.8,66.6,52.6,38.7,97,62,22,29.99,29.86,12,3,18,0.00
2013-9-13,81.9,60.2,44.4,56.7,47.9,42.7,99,71,29,30.03,29.87,6,1,9,0.00
2013-9-14,82.8,61.8,40.3,58.7,44.6,37.6,99,61,23,29.90,29.69,11,3,16,0.00
2013-9-15,70.7,66.4,61.7,64.8,56.7,20.2,95,72,20,30.02,29.64,12,5,16,0.02
2013-9-16,71.8,59.5,48.6,61.0,48.3,11.5,99,73,20,30.14,30.01,8,2,13,0.00
2013-9-17,67.8,60.7,54.9,65.4,59.0,52.9,99,94,85,30.02,29.75,8,3,11,0.61
2013-9-18,94.3,78.1,65.1,71.5,67.9,63.7,97,74,45,29.77,29.54,13,6,21,0.01
2013-9-19,89.1,73.9,62.4,71.3,67.5,57.9,99,82,51,29.69,29.51,22,6,61,0.61
2013-9-20,75.2,62.5,48.7,62.6,52.3,46.3,92,71,45,29.81,29.69,13,5,21,0.00
2013-9-21,82.0,57.1,39.6,58.4,46.0,39.3,99,74,27,29.82,29.69,6,1,8,0.00
2013-9-22,83.8,62.4,46.2,60.2,52.1,45.4,99,74,41,29.76,29.65,10,2,14,0.00
2013-9-23,140.0,63.2,46.4,57.1,51.4,46.1,99,70,36,29.74,29.62,16,4,19,0.00
2013-9-24,71.2,62.1,55.8,62.8,56.5,51.4,99,82,66,29.68,29.60,7,2,10,0.25
2013-9-25,83.1,64.7,47.5,63.2,56.6,47.2,99,78,48,29.72,29.61,6,2,13,0.00
2013-9-26,89.2,70.9,55.8,67.2,61.1,55.5,99,75,43,29.71,29.63,12,4,21,0.00
2013-9-27,90.7,76.2,66.7,65.8,61.2,47.9,88,63,36,29.75,29.65,56,12,56,0.00
2013-9-28,70.2,62.2,44.2,66.0,57.5,43.5,99,86,55,29.84,29.56,12,5,19,0.15
2013-9-29,80.8,57.6,38.8,59.1,45.2,38.6,99,71,29,29.85,29.69,11,3,14,0.01
2013-9-30,83.1,63.1,45.5,60.4,51.3,44.7,99,71,32,29.71,29.53,12,4,21,0.00